Time;durP1;ratioP1;P1;durP2;ratioP2;P2;SDS_P1;SDS_P2;PMS_P1;PMS_P2;Temp;Humidity;BMP_temperature;BMP_pressure;BME280_temperature;BME280_humidity;BME280_pressure;Samples;Min_cycle;Max_cycle;Signal;HPM_P1;HPM_P2
2022/10/27 00:00:49;;;;;;;2.50;2.13;;;13.30;99.90;;;;;;936760;151;27758;-80
2022/10/27 00:03:15;;;;;;;2.57;2.37;;;13.30;99.90;;;;;;936025;151;27275;-79
2022/10/27 00:05:42;;;;;;;6.77;3.33;;;13.20;99.90;;;;;;937231;151;27330;-78
2022/10/27 00:08:08;;;;;;;3.10;2.80;;;13.30;99.90;;;;;;937067;151;27272;-78
2022/10/27 00:10:35;;;;;;;5.30;2.70;;;13.30;99.90;;;;;;938368;151;27433;-78
2022/10/27 00:13:02;;;;;;;4.20;2.80;;;13.20;99.90;;;;;;935394;149;27354;-80
2022/10/27 00:15:28;;;;;;;4.43;2.87;;;13.20;99.90;;;;;;936389;149;27374;-80
2022/10/27 00:17:55;;;;;;;4.60;2.80;;;13.20;99.90;;;;;;935893;149;27403;-79
2022/10/27 00:20:21;;;;;;;3.40;2.90;;;13.20;99.90;;;;;;935716;151;27258;-80
2022/10/27 00:22:48;;;;;;;3.00;2.70;;;13.20;99.90;;;;;;934219;149;27412;-79
2022/10/27 00:25:15;;;;;;;3.17;2.73;;;13.20;99.90;;;;;;935608;149;27348;-80
2022/10/27 00:27:42;;;;;;;4.13;2.80;;;13.20;99.90;;;;;;934854;151;27375;-80
2022/10/27 00:30:08;;;;;;;4.50;2.93;;;13.10;99.90;;;;;;920458;154;27434;-80
2022/10/27 00:32:34;;;;;;;3.23;2.90;;;13.10;99.90;;;;;;929845;154;27400;-79
2022/10/27 00:35:01;;;;;;;2.90;2.63;;;13.10;99.90;;;;;;935134;151;27298;-79
2022/10/27 00:37:28;;;;;;;3.03;2.70;;;13.10;99.90;;;;;;936105;149;27366;-78
2022/10/27 00:39:54;;;;;;;4.17;2.53;;;13.10;99.90;;;;;;934149;151;27491;-79
2022/10/27 00:42:21;;;;;;;3.20;2.87;;;13.00;99.90;;;;;;937158;149;27282;-80
2022/10/27 00:44:47;;;;;;;4.57;3.07;;;13.00;99.90;;;;;;936535;151;27355;-80
2022/10/27 00:47:25;;;;;;;3.80;2.70;;;13.00;99.90;;;;;;936427;149;27331;-79
2022/10/27 00:49:55;;;;;;;5.20;2.43;;;13.00;99.90;;;;;;934744;151;27375;-80
2022/10/27 00:52:27;;;;;;;2.80;2.30;;;12.90;99.90;;;;;;935454;151;27435;-80
2022/10/27 00:54:54;;;;;;;2.90;2.60;;;12.90;99.90;;;;;;937686;148;27322;-80
2022/10/27 00:57:20;;;;;;;2.80;2.50;;;12.90;99.90;;;;;;934742;149;27427;-79
2022/10/27 00:59:47;;;;;;;3.10;2.40;;;12.90;99.90;;;;;;937958;149;27332;-78
2022/10/27 01:02:14;;;;;;;3.13;2.60;;;12.80;99.90;;;;;;937505;151;27374;-80
2022/10/27 01:04:40;;;;;;;3.67;2.40;;;12.80;99.90;;;;;;934906;151;27409;-79
2022/10/27 01:07:06;;;;;;;2.53;2.33;;;12.80;99.90;;;;;;934717;149;27293;-80
2022/10/27 01:09:33;;;;;;;2.47;2.27;;;12.70;99.90;;;;;;936136;151;27793;-80
2022/10/27 01:12:00;;;;;;;5.20;2.43;;;12.70;99.90;;;;;;938126;149;27335;-78
2022/10/27 01:14:26;;;;;;;2.93;2.63;;;12.70;99.90;;;;;;936309;149;27393;-80
2022/10/27 01:17:02;;;;;;;5.63;2.57;;;12.60;99.90;;;;;;936779;151;27448;-80
2022/10/27 01:19:50;;;;;;;3.77;2.53;;;12.60;99.90;;;;;;936314;149;27288;-80
2022/10/27 01:22:19;;;;;;;6.53;2.77;;;12.60;99.90;;;;;;936521;151;27650;-78
2022/10/27 01:25:07;;;;;;;2.57;2.37;;;12.50;99.90;;;;;;935414;149;27401;-78
2022/10/27 01:27:51;;;;;;;3.30;2.53;;;12.50;99.90;;;;;;933444;149;27390;-80
2022/10/27 01:30:18;;;;;;;4.73;2.90;;;12.50;99.90;;;;;;934892;149;27947;-80
2022/10/27 01:33:12;;;;;;;6.77;3.47;;;12.40;99.90;;;;;;935842;151;27371;-80
2022/10/27 01:35:44;;;;;;;8.77;3.47;;;12.40;99.90;;;;;;935001;151;27887;-80
2022/10/27 01:38:31;;;;;;;12.13;3.37;;;12.40;99.90;;;;;;936663;151;28003;-79
2022/10/27 01:41:00;;;;;;;11.93;4.27;;;12.40;99.90;;;;;;936989;149;27373;-80
2022/10/27 01:43:27;;;;;;;14.43;4.10;;;12.40;99.90;;;;;;934011;151;27315;-80
2022/10/27 01:45:54;;;;;;;3.30;2.90;;;12.40;99.90;;;;;;934903;151;27330;-80
2022/10/27 01:48:20;;;;;;;5.67;2.77;;;12.30;99.90;;;;;;936356;151;27316;-80
2022/10/27 01:50:47;;;;;;;3.97;2.70;;;12.30;99.90;;;;;;937556;149;27357;-80
2022/10/27 01:53:13;;;;;;;4.00;2.80;;;12.30;99.90;;;;;;936828;148;27522;-80
2022/10/27 01:55:52;;;;;;;9.07;2.60;;;12.30;99.90;;;;;;935812;148;27258;-80
2022/10/27 01:58:40;;;;;;;5.03;3.17;;;12.30;99.90;;;;;;937119;148;27437;-80
2022/10/27 02:01:28;;;;;;;3.30;3.00;;;12.30;99.90;;;;;;934893;148;27717;-79
2022/10/27 02:03:54;;;;;;;3.30;2.77;;;12.30;99.90;;;;;;934895;148;27392;-80
2022/10/27 02:06:27;;;;;;;7.63;3.40;;;12.20;99.90;;;;;;934688;148;27417;-79
2022/10/27 02:08:53;;;;;;;3.87;3.17;;;12.20;99.90;;;;;;938923;146;27399;-79
2022/10/27 02:11:20;;;;;;;3.27;2.77;;;12.20;99.90;;;;;;935418;148;27266;-79
2022/10/27 02:13:46;;;;;;;3.30;3.00;;;12.20;99.90;;;;;;934263;148;27374;-79
2022/10/27 02:16:16;;;;;;;3.03;2.73;;;12.20;99.90;;;;;;936763;148;27841;-79
2022/10/27 02:18:42;;;;;;;10.20;3.40;;;12.10;99.90;;;;;;934751;148;27417;-80
2022/10/27 02:21:09;;;;;;;21.27;8.70;;;12.10;99.90;;;;;;934027;148;27387;-79
2022/10/27 02:23:35;;;;;;;26.03;9.77;;;12.10;99.90;;;;;;928139;150;27327;-79
2022/10/27 02:26:02;;;;;;;11.50;6.53;;;12.10;99.90;;;;;;934960;148;27331;-78
2022/10/27 02:28:31;;;;;;;15.70;7.30;;;12.10;99.90;;;;;;936498;148;27355;-79
2022/10/27 02:30:58;;;;;;;8.57;5.00;;;12.00;99.90;;;;;;934196;148;27447;-80
2022/10/27 02:33:24;;;;;;;5.27;3.30;;;12.00;99.90;;;;;;935114;148;27307;-78
2022/10/27 02:35:51;;;;;;;4.50;3.00;;;12.00;99.90;;;;;;936326;148;27734;-78
2022/10/27 02:38:18;;;;;;;3.47;2.80;;;12.00;99.90;;;;;;935291;148;27455;-78
2022/10/27 02:40:44;;;;;;;6.13;3.00;;;12.00;99.90;;;;;;936868;148;27354;-79
2022/10/27 02:43:11;;;;;;;3.17;2.40;;;12.00;99.90;;;;;;934371;148;27298;-79
2022/10/27 02:45:37;;;;;;;5.73;2.83;;;12.00;99.90;;;;;;933685;148;27434;-79
2022/10/27 02:48:04;;;;;;;3.13;2.33;;;12.00;99.90;;;;;;934618;151;27331;-79
2022/10/27 02:50:30;;;;;;;5.80;2.83;;;12.00;99.90;;;;;;936425;148;27382;-79
2022/10/27 02:52:57;;;;;;;5.40;3.30;;;12.00;99.90;;;;;;936163;148;27410;-78
2022/10/27 02:55:24;;;;;;;5.97;2.80;;;12.00;99.90;;;;;;923870;151;27343;-78
2022/10/27 02:57:50;;;;;;;4.73;3.17;;;12.00;99.90;;;;;;935144;151;27856;-77
2022/10/27 03:00:17;;;;;;;3.33;2.60;;;12.00;99.90;;;;;;936317;149;27422;-79
2022/10/27 03:02:43;;;;;;;3.50;3.20;;;12.00;99.90;;;;;;935379;149;27370;-79
2022/10/27 03:05:10;;;;;;;4.83;2.97;;;12.00;99.90;;;;;;935545;149;27373;-79
2022/10/27 03:07:37;;;;;;;3.17;2.87;;;12.00;99.90;;;;;;936014;151;27375;-79
2022/10/27 03:10:03;;;;;;;5.17;3.20;;;12.00;99.90;;;;;;921168;152;27358;-79
2022/10/27 03:12:30;;;;;;;7.23;3.40;;;12.00;99.90;;;;;;936013;149;27363;-79
2022/10/27 03:14:56;;;;;;;6.13;3.50;;;12.00;99.90;;;;;;935574;149;28027;-78
2022/10/27 03:17:23;;;;;;;4.90;3.53;;;12.00;99.90;;;;;;935544;151;27345;-79
2022/10/27 03:19:49;;;;;;;4.30;3.40;;;11.90;99.90;;;;;;936196;151;27339;-79
2022/10/27 03:22:16;;;;;;;5.83;3.23;;;11.90;99.90;;;;;;935748;149;27744;-79
2022/10/27 03:24:43;;;;;;;4.43;3.50;;;11.90;99.90;;;;;;934448;149;27277;-79
2022/10/27 03:27:09;;;;;;;29.30;4.80;;;11.90;99.90;;;;;;935897;151;27440;-79
2022/10/27 03:29:36;;;;;;;25.20;5.33;;;11.80;99.90;;;;;;936718;151;27336;-79
2022/10/27 03:32:02;;;;;;;6.47;4.00;;;11.80;99.90;;;;;;935074;151;27383;-80
2022/10/27 03:34:29;;;;;;;6.23;4.40;;;11.80;99.90;;;;;;936217;149;27324;-79
2022/10/27 03:36:56;;;;;;;15.40;7.60;;;11.80;99.90;;;;;;934688;151;27313;-81
2022/10/27 03:39:22;;;;;;;10.97;5.80;;;11.70;99.90;;;;;;936273;149;27396;-81
2022/10/27 03:41:49;;;;;;;20.27;8.07;;;11.70;99.90;;;;;;936781;149;27390;-82
2022/10/27 03:44:15;;;;;;;15.50;8.07;;;11.70;99.90;;;;;;938480;151;27491;-82
2022/10/27 03:46:42;;;;;;;7.37;5.00;;;11.70;99.90;;;;;;937095;149;27733;-81
2022/10/27 03:49:09;;;;;;;6.07;4.00;;;11.70;99.90;;;;;;936276;151;27324;-79
2022/10/27 03:51:35;;;;;;;6.07;3.70;;;11.70;99.90;;;;;;935309;151;27290;-81
2022/10/27 03:54:02;;;;;;;5.60;4.00;;;11.70;99.90;;;;;;944138;146;27401;-80
2022/10/27 03:56:28;;;;;;;6.20;4.40;;;11.70;99.90;;;;;;954206;146;27458;-82
2022/10/27 03:58:55;;;;;;;5.63;3.87;;;11.70;99.90;;;;;;951993;146;27304;-81
2022/10/27 04:01:21;;;;;;;4.77;3.80;;;11.70;99.90;;;;;;950563;146;27329;-82
2022/10/27 04:03:48;;;;;;;5.60;4.10;;;11.70;99.90;;;;;;952626;146;27428;-81
2022/10/27 04:06:15;;;;;;;7.30;3.93;;;11.70;99.90;;;;;;950952;146;27414;-80
2022/10/27 04:08:41;;;;;;;5.57;3.83;;;11.60;99.90;;;;;;951028;146;27973;-81
2022/10/27 04:11:08;;;;;;;6.03;4.27;;;11.60;99.90;;;;;;950349;146;27404;-81
2022/10/27 04:13:34;;;;;;;8.87;3.87;;;11.60;99.90;;;;;;951464;146;27310;-81
2022/10/27 04:16:01;;;;;;;6.77;4.50;;;11.50;99.90;;;;;;952907;146;27429;-81
2022/10/27 04:18:28;;;;;;;7.83;3.83;;;11.50;99.90;;;;;;950065;146;27387;-81
2022/10/27 04:20:54;;;;;;;7.50;4.07;;;11.50;99.90;;;;;;953086;146;27446;-81
2022/10/27 04:23:21;;;;;;;8.53;4.10;;;11.40;99.90;;;;;;950159;146;27372;-81
2022/10/27 04:25:47;;;;;;;4.93;3.90;;;11.40;99.90;;;;;;952572;146;28053;-81
2022/10/27 04:28:14;;;;;;;6.50;4.50;;;11.40;99.90;;;;;;950954;146;27322;-81
2022/10/27 04:30:41;;;;;;;5.07;4.33;;;11.40;99.90;;;;;;951829;146;27384;-80
2022/10/27 04:33:07;;;;;;;6.40;4.27;;;11.30;99.90;;;;;;950964;146;27455;-81
2022/10/27 04:35:34;;;;;;;7.97;4.50;;;11.30;99.90;;;;;;953528;146;27930;-82
2022/10/27 04:38:00;;;;;;;8.23;4.60;;;11.30;99.90;;;;;;952541;146;27267;-81
2022/10/27 04:40:27;;;;;;;7.30;4.73;;;11.20;99.90;;;;;;954439;146;27320;-80
2022/10/27 04:42:54;;;;;;;7.63;5.27;;;11.20;99.90;;;;;;951801;146;27326;-81
2022/10/27 04:45:20;;;;;;;6.50;5.17;;;11.20;99.90;;;;;;950756;146;27407;-81
2022/10/27 04:47:47;;;;;;;6.63;4.53;;;11.20;99.90;;;;;;952212;146;27707;-81
2022/10/27 04:50:13;;;;;;;5.93;4.43;;;11.10;99.90;;;;;;951508;146;27333;-81
2022/10/27 04:52:40;;;;;;;5.17;4.27;;;11.10;99.90;;;;;;953178;146;27449;-81
2022/10/27 04:55:06;;;;;;;7.07;4.30;;;11.10;99.90;;;;;;940771;146;27307;-81
2022/10/27 04:57:33;;;;;;;6.90;4.27;;;11.00;99.90;;;;;;935385;148;27738;-80
2022/10/27 05:00:00;;;;;;;7.97;5.07;;;11.00;99.90;;;;;;935978;148;27359;-80
2022/10/27 05:02:26;;;;;;;9.73;5.97;;;11.00;99.90;;;;;;934586;148;27365;-81
2022/10/27 05:04:53;;;;;;;11.00;5.87;;;10.90;99.90;;;;;;920478;150;27415;-81
2022/10/27 05:07:19;;;;;;;14.50;6.90;;;10.90;99.90;;;;;;934834;148;27432;-80
2022/10/27 05:09:46;;;;;;;12.50;6.87;;;10.90;99.90;;;;;;934604;148;27370;-80
2022/10/27 05:12:13;;;;;;;11.23;6.67;;;10.90;99.90;;;;;;935856;148;27361;-81
2022/10/27 05:14:39;;;;;;;10.37;6.80;;;10.80;99.90;;;;;;936596;148;27389;-81
2022/10/27 05:17:06;;;;;;;10.33;6.17;;;10.80;99.90;;;;;;934423;148;27398;-81
2022/10/27 05:19:32;;;;;;;9.70;6.70;;;10.80;99.90;;;;;;935563;148;27362;-81
2022/10/27 05:21:59;;;;;;;9.33;6.27;;;10.80;99.90;;;;;;935220;148;27380;-81
2022/10/27 05:24:25;;;;;;;15.47;8.80;;;10.80;99.90;;;;;;934710;148;29039;-81
2022/10/27 05:26:52;;;;;;;20.87;10.50;;;10.80;99.90;;;;;;933069;149;27374;-81
2022/10/27 05:29:19;;;;;;;31.93;11.50;;;10.80;99.90;;;;;;937855;148;27426;-81
2022/10/27 05:31:45;;;;;;;15.93;8.33;;;10.70;99.90;;;;;;933867;148;27996;-81
2022/10/27 05:34:12;;;;;;;16.03;7.93;;;10.70;99.90;;;;;;937137;148;27290;-81
2022/10/27 05:36:38;;;;;;;13.30;7.07;;;10.70;99.90;;;;;;935423;148;27393;-80
2022/10/27 05:39:05;;;;;;;16.17;7.90;;;10.70;99.90;;;;;;936276;148;27335;-81
2022/10/27 05:41:32;;;;;;;18.10;9.23;;;10.70;99.90;;;;;;934701;148;27715;-81
2022/10/27 05:43:58;;;;;;;15.70;9.13;;;10.70;99.90;;;;;;920578;150;27450;-81
2022/10/27 05:46:25;;;;;;;21.53;10.50;;;10.70;99.90;;;;;;935255;148;27325;-81
2022/10/27 05:48:51;;;;;;;16.73;9.53;;;10.70;99.90;;;;;;937213;147;27307;-81
2022/10/27 05:51:18;;;;;;;18.27;10.17;;;10.70;99.90;;;;;;934212;148;27377;-81
2022/10/27 05:53:45;;;;;;;23.00;11.27;;;10.60;99.90;;;;;;934489;148;27371;-81
2022/10/27 05:56:11;;;;;;;27.70;12.87;;;10.60;99.90;;;;;;936861;148;27386;-81
2022/10/27 05:58:38;;;;;;;19.33;11.33;;;10.60;99.90;;;;;;935299;149;27284;-80
2022/10/27 06:01:04;;;;;;;16.50;9.80;;;10.60;99.90;;;;;;934771;151;27323;-80
2022/10/27 06:03:31;;;;;;;18.73;10.87;;;10.60;99.90;;;;;;937991;149;27323;-81
2022/10/27 06:05:58;;;;;;;18.57;11.17;;;10.60;99.90;;;;;;922854;151;27383;-80
2022/10/27 06:08:24;;;;;;;16.57;9.43;;;10.70;99.90;;;;;;919075;153;27311;-81
2022/10/27 06:10:51;;;;;;;14.10;8.53;;;10.60;99.90;;;;;;918649;154;27372;-81
2022/10/27 06:13:18;;;;;;;13.13;8.57;;;10.70;99.90;;;;;;934770;151;27440;-80
2022/10/27 06:15:44;;;;;;;8.40;6.40;;;10.70;99.90;;;;;;937765;151;27382;-80
2022/10/27 06:18:12;;;;;;;5.67;4.87;;;10.70;99.90;;;;;;940013;148;27801;-79
2022/10/27 06:20:37;;;;;;;5.77;5.03;;;10.70;99.90;;;;;;924560;151;27720;-79
2022/10/27 06:23:04;;;;;;;13.43;6.00;;;10.70;99.90;;;;;;922836;151;27653;-79
2022/10/27 06:25:30;;;;;;;8.30;5.07;;;10.70;99.90;;;;;;937681;147;27325;-81
2022/10/27 06:27:57;;;;;;;7.33;6.00;;;10.70;99.90;;;;;;935923;149;27784;-80
2022/10/27 06:30:23;;;;;;;6.73;5.57;;;10.80;99.90;;;;;;935369;151;27375;-80
2022/10/27 06:32:50;;;;;;;8.17;5.97;;;10.80;99.90;;;;;;935581;149;27341;-81
2022/10/27 06:35:17;;;;;;;9.33;6.37;;;10.90;99.90;;;;;;936750;149;27282;-80
2022/10/27 06:37:43;;;;;;;13.63;10.07;;;11.00;99.90;;;;;;935415;151;27320;-81
2022/10/27 06:40:10;;;;;;;13.63;9.70;;;11.20;99.90;;;;;;936201;149;27771;-80
2022/10/27 06:42:37;;;;;;;13.67;9.37;;;11.40;99.90;;;;;;936281;149;27339;-79
2022/10/27 06:45:03;;;;;;;12.30;8.63;;;11.60;99.90;;;;;;938213;149;27380;-81
2022/10/27 06:47:30;;;;;;;8.27;6.43;;;11.80;99.90;;;;;;933385;151;27728;-81
2022/10/27 06:49:56;;;;;;;10.90;7.23;;;12.10;99.90;;;;;;936082;149;27332;-81
2022/10/27 06:52:23;;;;;;;10.93;7.03;;;12.50;99.90;;;;;;935442;151;27351;-81
2022/10/27 06:54:49;;;;;;;8.67;6.93;;;12.80;99.90;;;;;;936370;149;27354;-80
2022/10/27 06:57:16;;;;;;;13.43;6.83;;;13.20;99.90;;;;;;936047;148;27457;-81
2022/10/27 06:59:42;;;;;;;11.10;7.00;;;13.60;99.90;;;;;;936148;151;27331;-80
2022/10/27 07:02:13;;;;;;;11.73;6.62;;;14.00;99.90;;;;;;932865;151;27333;-80
2022/10/27 07:04:39;;;;;;;11.90;6.28;;;14.50;99.90;;;;;;922250;151;27347;-80
2022/10/27 07:07:05;;;;;;;10.35;6.10;;;15.00;99.90;;;;;;920338;152;27324;-80
2022/10/27 07:09:32;;;;;;;8.13;5.92;;;15.50;99.90;;;;;;934821;151;27366;-81
2022/10/27 07:11:58;;;;;;;9.58;7.30;;;16.00;99.90;;;;;;937515;149;27354;-79
2022/10/27 07:14:25;;;;;;;14.07;10.95;;;16.50;99.90;;;;;;936145;151;27281;-79
2022/10/27 07:16:52;;;;;;;12.73;10.90;;;16.90;99.90;;;;;;933321;150;27328;-79
2022/10/27 07:19:18;;;;;;;15.50;11.60;;;17.40;99.90;;;;;;916885;154;27350;-78
2022/10/27 07:21:45;;;;;;;12.28;10.25;;;17.80;99.90;;;;;;935195;151;27422;-78
2022/10/27 07:24:11;;;;;;;12.10;10.03;;;18.20;99.90;;;;;;933505;150;27344;-79
2022/10/27 07:26:38;;;;;;;10.93;8.05;;;18.70;99.90;;;;;;931841;150;27311;-79
2022/10/27 07:29:04;;;;;;;11.95;9.45;;;19.20;99.90;;;;;;917601;155;27316;-79
2022/10/27 07:31:31;;;;;;;12.13;9.28;;;19.70;99.90;;;;;;920441;154;27431;-79
2022/10/27 07:33:58;;;;;;;10.28;7.80;;;20.20;99.90;;;;;;936586;151;27308;-78
2022/10/27 07:36:24;;;;;;;10.15;7.45;;;20.60;99.90;;;;;;936167;149;27475;-79
2022/10/27 07:38:51;;;;;;;8.38;6.75;;;21.10;99.90;;;;;;936135;148;27373;-79
2022/10/27 07:41:17;;;;;;;9.35;6.65;;;21.60;99.90;;;;;;935364;149;27381;-78
2022/10/27 07:43:44;;;;;;;8.18;5.87;;;22.00;99.90;;;;;;935474;151;27351;-80
2022/10/27 07:46:11;;;;;;;5.95;4.10;;;22.50;99.70;;;;;;936319;149;27316;-78
2022/10/27 07:48:37;;;;;;;3.98;3.22;;;23.00;97.70;;;;;;933438;151;27475;-80
2022/10/27 07:51:04;;;;;;;4.12;3.25;;;23.40;96.90;;;;;;936062;149;27431;-79
2022/10/27 07:53:30;;;;;;;2.90;2.70;;;23.90;96.10;;;;;;935784;151;27346;-79
2022/10/27 07:55:57;;;;;;;4.28;3.87;;;24.30;94.40;;;;;;938977;149;27340;-79
2022/10/27 07:58:24;;;;;;;5.75;5.15;;;24.70;93.30;;;;;;952830;146;27431;-80
2022/10/27 08:00:50;;;;;;;5.25;4.53;;;25.20;92.70;;;;;;952103;146;27332;-78
2022/10/27 08:03:20;;;;;;;4.47;4.08;;;25.50;91.20;;;;;;935762;149;27372;-80
2022/10/27 08:05:46;;;;;;;3.90;3.60;;;26.00;90.10;;;;;;953024;146;27421;-80
2022/10/27 08:08:14;;;;;;;3.00;2.80;;;26.30;87.40;;;;;;951576;146;28043;-80
2022/10/27 08:10:39;;;;;;;3.00;2.80;;;26.60;85.00;;;;;;952606;146;27449;-79
2022/10/27 08:13:06;;;;;;;3.95;2.70;;;27.00;83.80;;;;;;952712;149;27329;-79
2022/10/27 08:15:33;;;;;;;2.75;2.55;;;27.30;82.80;;;;;;948434;146;27369;-79
2022/10/27 08:18:01;;;;;;;2.12;1.98;;;27.60;82.30;;;;;;950987;146;27340;-79
2022/10/27 08:20:27;;;;;;;3.30;2.22;;;27.90;80.50;;;;;;952948;146;27430;-79
2022/10/27 08:22:55;;;;;;;2.65;1.95;;;28.30;79.20;;;;;;949219;146;27457;-79
2022/10/27 08:25:22;;;;;;;2.40;2.20;;;28.60;78.20;;;;;;950126;146;27375;-80
2022/10/27 08:27:48;;;;;;;2.85;2.12;;;28.90;76.30;;;;;;950310;146;27454;-79
2022/10/27 08:30:15;;;;;;;2.60;2.40;;;29.20;75.10;;;;;;941178;151;27313;-79
2022/10/27 08:32:41;;;;;;;2.10;2.00;;;29.50;73.60;;;;;;935346;149;27374;-79
2022/10/27 08:35:08;;;;;;;2.50;2.30;;;29.70;72.20;;;;;;953269;146;27346;-79
2022/10/27 08:37:35;;;;;;;3.95;2.50;;;29.90;70.70;;;;;;951410;146;27336;-79
2022/10/27 08:40:01;;;;;;;2.52;2.30;;;30.00;69.30;;;;;;935022;149;27374;-80
2022/10/27 08:42:43;;;;;;;2.30;2.10;;;30.00;68.30;;;;;;949876;146;27493;-79
2022/10/27 08:45:28;;;;;;;2.87;2.20;;;30.00;67.40;;;;;;951093;146;27393;-79
2022/10/27 08:47:54;;;;;;;2.08;1.90;;;29.90;66.80;;;;;;937588;148;27396;-79
2022/10/27 08:50:21;;;;;;;2.47;2.02;;;29.70;65.60;;;;;;942357;148;27412;-79
2022/10/27 08:52:53;;;;;;;2.20;2.10;;;29.40;64.50;;;;;;942539;148;27297;-78
2022/10/27 08:55:20;;;;;;;3.02;2.20;;;29.20;64.20;;;;;;941570;150;27416;-79
2022/10/27 08:58:01;;;;;;;3.98;2.20;;;28.70;64.60;;;;;;938489;148;27346;-79
2022/10/27 09:00:31;;;;;;;2.52;2.30;;;28.30;64.30;;;;;;890210;156;27560;-79
2022/10/27 09:03:18;;;;;;;2.52;2.33;;;27.80;63.80;;;;;;923997;152;27433;-79
2022/10/27 09:06:09;;;;;;;3.45;2.02;;;27.40;63.90;;;;;;929911;149;27396;-78
2022/10/27 09:08:35;;;;;;;2.45;2.25;;;26.70;64.00;;;;;;931058;149;27806;-79
2022/10/27 09:11:20;;;;;;;2.05;1.95;;;26.10;64.80;;;;;;932187;149;27320;-79
2022/10/27 09:14:05;;;;;;;2.37;2.08;;;25.60;65.40;;;;;;932259;149;27327;-79
2022/10/27 09:16:34;;;;;;;2.17;1.98;;;25.20;66.10;;;;;;932428;149;27430;-79
2022/10/27 09:19:01;;;;;;;2.10;1.92;;;24.70;67.00;;;;;;932921;149;27472;-79
2022/10/27 09:21:27;;;;;;;2.40;1.65;;;24.40;68.10;;;;;;932722;149;27375;-79
2022/10/27 09:23:54;;;;;;;1.55;1.45;;;24.20;69.00;;;;;;932775;149;27392;-79
2022/10/27 09:26:20;;;;;;;3.22;1.67;;;24.00;70.30;;;;;;933401;149;27339;-78
2022/10/27 09:28:48;;;;;;;3.42;1.87;;;23.90;71.20;;;;;;930279;149;27444;-79
2022/10/27 09:31:16;;;;;;;2.98;1.65;;;23.80;72.60;;;;;;933164;149;27440;-78
2022/10/27 09:33:45;;;;;;;1.57;1.30;;;23.80;72.30;;;;;;932640;149;27351;-79
2022/10/27 09:36:12;;;;;;;1.92;1.75;;;23.80;72.70;;;;;;933522;149;27432;-79
2022/10/27 09:38:38;;;;;;;2.30;1.57;;;23.80;72.80;;;;;;931311;149;27495;-79
2022/10/27 09:41:05;;;;;;;2.92;1.52;;;23.80;72.90;;;;;;931721;149;27521;-80
2022/10/27 09:43:32;;;;;;;2.17;2.00;;;23.80;73.00;;;;;;932979;149;27368;-80
2022/10/27 09:46:04;;;;;;;3.40;1.45;;;23.90;73.30;;;;;;931246;149;27459;-79
2022/10/27 09:48:31;;;;;;;3.95;1.42;;;23.90;73.40;;;;;;932193;149;27297;-79
2022/10/27 09:51:00;;;;;;;1.95;1.70;;;23.90;73.20;;;;;;931514;149;27446;-79
2022/10/27 09:53:46;;;;;;;2.05;1.65;;;23.90;73.10;;;;;;931792;149;27367;-78
2022/10/27 09:56:12;;;;;;;2.10;1.65;;;23.90;72.90;;;;;;930274;149;27473;-79
2022/10/27 09:58:47;;;;;;;1.40;1.30;;;23.90;72.80;;;;;;931708;149;27351;-80
2022/10/27 10:01:13;;;;;;;2.65;1.90;;;23.90;72.80;;;;;;927910;149;27371;-79
2022/10/27 10:03:40;;;;;;;3.83;1.90;;;23.90;72.50;;;;;;930804;149;27414;-79
2022/10/27 10:06:06;;;;;;;2.45;1.87;;;23.80;72.20;;;;;;932627;149;27391;-80
2022/10/27 10:08:35;;;;;;;2.15;1.75;;;23.80;72.10;;;;;;931830;149;27736;-80
2022/10/27 10:11:05;;;;;;;3.40;1.87;;;23.70;72.10;;;;;;933107;149;27353;-79
2022/10/27 10:13:32;;;;;;;2.33;1.57;;;23.60;72.40;;;;;;931508;149;27432;-79
2022/10/27 10:16:05;;;;;;;2.20;2.10;;;23.60;72.70;;;;;;934067;149;27453;-78
2022/10/27 10:18:31;;;;;;;3.12;1.77;;;23.50;72.50;;;;;;933020;149;27395;-79
2022/10/27 10:20:58;;;;;;;5.08;2.20;;;23.40;72.70;;;;;;932565;149;28353;-79
2022/10/27 10:23:25;;;;;;;2.08;1.72;;;23.30;72.50;;;;;;932114;149;27338;-79
2022/10/27 10:25:51;;;;;;;2.22;2.00;;;23.20;73.60;;;;;;932545;149;27347;-79
2022/10/27 10:28:26;;;;;;;2.47;1.92;;;23.10;72.90;;;;;;930740;149;27886;-78
2022/10/27 10:30:53;;;;;;;2.95;1.62;;;23.10;73.20;;;;;;933008;149;27778;-78
2022/10/27 10:33:20;;;;;;;2.80;2.20;;;23.00;73.20;;;;;;931556;149;27420;-80
2022/10/27 10:35:49;;;;;;;2.47;1.90;;;22.90;73.40;;;;;;931851;149;27326;-80
2022/10/27 10:38:36;;;;;;;3.42;2.20;;;22.90;73.60;;;;;;933649;149;27340;-79
2022/10/27 10:41:16;;;;;;;3.30;2.17;;;22.80;73.90;;;;;;931566;149;27394;-79
2022/10/27 10:43:43;;;;;;;4.78;2.20;;;22.70;73.90;;;;;;931906;150;27340;-79
2022/10/27 10:46:21;;;;;;;5.85;2.40;;;22.70;74.00;;;;;;930107;149;27460;-79
2022/10/27 10:48:50;;;;;;;2.50;1.85;;;22.60;74.10;;;;;;928980;149;27386;-81
2022/10/27 10:51:23;;;;;;;2.35;2.12;;;22.50;74.40;;;;;;932801;149;27308;-79
2022/10/27 10:53:50;;;;;;;3.83;2.12;;;22.50;74.60;;;;;;930990;149;27344;-80
2022/10/27 10:56:16;;;;;;;4.17;1.90;;;22.40;74.70;;;;;;931837;149;27442;-80
2022/10/27 10:58:43;;;;;;;3.22;2.25;;;22.40;75.00;;;;;;924415;151;27500;-80
2022/10/27 11:01:09;;;;;;;3.35;2.12;;;22.30;75.20;;;;;;918181;151;27420;-80
2022/10/27 11:03:36;;;;;;;2.00;1.90;;;22.30;75.40;;;;;;918833;154;27346;-79
2022/10/27 11:06:03;;;;;;;2.02;1.85;;;22.20;75.70;;;;;;933887;151;27419;-80
2022/10/27 11:08:29;;;;;;;3.08;2.00;;;22.20;76.00;;;;;;936163;151;27437;-79
2022/10/27 11:10:56;;;;;;;3.87;2.40;;;22.20;76.40;;;;;;934674;151;27517;-79
2022/10/27 11:13:31;;;;;;;4.85;2.00;;;22.20;76.60;;;;;;933810;151;27380;-79
2022/10/27 11:16:01;;;;;;;3.10;2.30;;;22.20;76.70;;;;;;924701;151;27270;-79
2022/10/27 11:18:28;;;;;;;5.78;2.10;;;22.30;76.70;;;;;;935557;151;27388;-79
2022/10/27 11:21:15;;;;;;;4.22;2.25;;;22.30;76.70;;;;;;934062;151;27372;-79
2022/10/27 11:23:44;;;;;;;2.95;1.82;;;22.30;76.70;;;;;;930958;151;27553;-78
2022/10/27 11:26:10;;;;;;;3.50;1.90;;;22.40;77.00;;;;;;933860;151;27311;-79
2022/10/27 11:28:37;;;;;;;4.28;2.05;;;22.40;76.70;;;;;;937369;151;27383;-79
2022/10/27 11:31:37;;;;;;;2.22;2.02;;;22.40;76.70;;;;;;933651;151;27404;-80
2022/10/27 11:34:12;;;;;;;2.92;2.05;;;22.40;76.70;;;;;;935741;151;27413;-79
2022/10/27 11:36:39;;;;;;;3.02;2.25;;;22.50;76.60;;;;;;935147;151;27464;-80
2022/10/27 11:39:05;;;;;;;4.25;2.30;;;22.50;76.60;;;;;;936016;151;27359;-79
2022/10/27 11:41:51;;;;;;;3.30;2.08;;;22.50;76.40;;;;;;935217;151;27436;-79
2022/10/27 11:44:30;;;;;;;2.83;2.02;;;22.50;76.30;;;;;;936368;151;27366;-79
2022/10/27 11:47:05;;;;;;;4.70;2.10;;;22.50;76.30;;;;;;933988;151;27447;-80
2022/10/27 11:49:40;;;;;;;3.20;2.05;;;22.50;76.10;;;;;;930686;151;27724;-80
2022/10/27 11:52:09;;;;;;;2.37;2.17;;;22.50;76.20;;;;;;931804;151;27435;-79
2022/10/27 11:54:35;;;;;;;4.30;2.30;;;22.40;75.70;;;;;;934216;151;27436;-80
2022/10/27 11:57:14;;;;;;;3.12;1.92;;;22.40;76.60;;;;;;937893;151;27354;-79
2022/10/27 11:59:43;;;;;;;4.70;2.20;;;22.40;77.00;;;;;;935316;148;27337;-79
2022/10/27 12:02:25;;;;;;;5.05;2.02;;;22.40;77.00;;;;;;936126;151;27396;-79
2022/10/27 12:05:00;;;;;;;2.17;1.98;;;22.50;77.10;;;;;;919506;151;28160;-78
2022/10/27 12:07:32;;;;;;;3.35;2.17;;;22.50;77.20;;;;;;921245;154;27385;-79
2022/10/27 12:10:17;;;;;;;2.52;1.87;;;22.50;77.20;;;;;;935442;151;27490;-78
2022/10/27 12:12:44;;;;;;;3.02;1.85;;;22.60;77.20;;;;;;921308;154;27389;-79
2022/10/27 12:15:13;;;;;;;2.37;1.92;;;22.60;77.20;;;;;;921068;151;27311;-79
2022/10/27 12:17:39;;;;;;;3.65;2.05;;;22.60;77.10;;;;;;918694;154;28864;-79
2022/10/27 12:20:06;;;;;;;3.17;2.10;;;22.60;77.10;;;;;;936262;149;27895;-79
2022/10/27 12:22:38;;;;;;;3.25;2.27;;;22.60;77.10;;;;;;933505;151;27431;-79
2022/10/27 12:25:10;;;;;;;3.72;2.17;;;22.70;77.30;;;;;;933059;151;27411;-78
2022/10/27 12:27:37;;;;;;;3.60;1.80;;;22.70;77.00;;;;;;935657;151;27369;-79
2022/10/27 12:32:39;;;;;;;3.95;2.35;;;22.70;77.00;;;;;;976203;145;38544;-79
2022/10/27 12:35:06;;;;;;;3.27;2.25;;;22.80;77.30;;;;;;935201;146;27413;-78
2022/10/27 12:37:35;;;;;;;2.70;2.30;;;22.80;77.00;;;;;;966834;146;27388;-78
2022/10/27 12:40:04;;;;;;;2.10;1.98;;;22.90;77.10;;;;;;966681;146;27394;-78
2022/10/27 12:42:37;;;;;;;3.83;2.08;;;23.00;76.50;;;;;;967118;146;27299;-78
2022/10/27 12:45:34;;;;;;;4.12;2.17;;;23.00;76.90;;;;;;937056;148;27385;-79
2022/10/27 12:48:09;;;;;;;2.37;2.20;;;23.00;76.90;;;;;;950794;148;27264;-78
2022/10/27 12:50:42;;;;;;;6.47;2.47;;;23.10;77.00;;;;;;952588;148;27326;-77
2022/10/27 12:53:27;;;;;;;3.47;1.90;;;23.10;76.90;;;;;;948968;148;27352;-78
2022/10/27 12:55:59;;;;;;;3.02;2.05;;;23.20;77.50;;;;;;950631;148;27369;-78